createdAt,value
2017-11-16T00:00:33.807Z,0
2017-11-16T00:01:46.528Z,0
2017-11-16T00:03:00.200Z,0
2017-11-16T00:04:13.906Z,0
2017-11-16T00:05:27.663Z,0
2017-11-16T00:06:40.826Z,0
2017-11-16T00:07:54.521Z,0
2017-11-16T00:09:08.228Z,0
2017-11-16T00:10:21.940Z,0
2017-11-16T00:11:35.206Z,0
2017-11-16T00:12:48.393Z,0
2017-11-16T00:14:02.102Z,0
2017-11-16T00:15:15.280Z,0
2017-11-16T00:16:29.154Z,0
2017-11-16T00:17:42.873Z,0
2017-11-16T00:18:56.079Z,0
2017-11-16T00:20:09.271Z,0
2017-11-16T00:21:22.491Z,0
2017-11-16T00:22:36.200Z,0
2017-11-16T00:23:49.408Z,0
2017-11-16T00:25:02.614Z,0
2017-11-16T00:26:16.290Z,0
2017-11-16T00:27:29.982Z,0
2017-11-16T00:28:43.651Z,0
2017-11-16T00:29:56.825Z,0
2017-11-16T00:31:09.479Z,0
2017-11-16T00:32:23.168Z,0
2017-11-16T00:33:36.882Z,0
2017-11-16T00:34:50.575Z,0
2017-11-16T00:36:04.268Z,0
2017-11-16T00:37:17.441Z,0
2017-11-16T00:38:31.168Z,0
2017-11-16T00:39:44.878Z,0
2017-11-16T00:40:58.588Z,0
2017-11-16T00:42:11.232Z,0
2017-11-16T00:43:24.441Z,0
2017-11-16T00:44:38.209Z,0
2017-11-16T00:45:52.105Z,0
2017-11-16T00:47:05.779Z,0
2017-11-16T00:48:19.547Z,0
2017-11-16T00:49:33.226Z,0
2017-11-16T00:50:46.423Z,0
2017-11-16T00:52:00.081Z,0
2017-11-16T00:53:13.231Z,0
2017-11-16T00:54:26.919Z,0
2017-11-16T00:55:40.565Z,0
2017-11-16T00:56:53.761Z,0
2017-11-16T00:58:07.706Z,0
2017-11-16T00:59:21.405Z,0
2017-11-16T01:00:35.115Z,0
2017-11-16T01:01:48.304Z,0
2017-11-16T01:03:02.021Z,0
2017-11-16T01:04:14.682Z,0
2017-11-16T01:05:28.417Z,0
2017-11-16T01:06:42.161Z,0
2017-11-16T01:07:56.043Z,0
2017-11-16T01:09:09.754Z,0
2017-11-16T01:10:23.679Z,0
2017-11-16T01:11:36.931Z,0
2017-11-16T01:12:50.600Z,0
2017-11-16T01:14:04.320Z,0
2017-11-16T01:15:18.009Z,0
2017-11-16T01:16:31.905Z,0
2017-11-16T01:17:45.638Z,0
2017-11-16T01:18:59.533Z,0
2017-11-16T01:20:13.248Z,0
2017-11-16T01:21:26.968Z,0
2017-11-16T01:22:40.669Z,0
2017-11-16T01:23:54.377Z,0
2017-11-16T01:25:08.104Z,0
2017-11-16T01:26:21.792Z,0
2017-11-16T01:27:34.979Z,0
2017-11-16T01:28:47.892Z,0
2017-11-16T01:30:01.113Z,0
2017-11-16T01:31:13.817Z,0
2017-11-16T01:32:30.838Z,0
2017-11-16T01:33:44.542Z,0
2017-11-16T01:34:58.229Z,0
2017-11-16T01:36:10.887Z,0
2017-11-16T01:37:24.081Z,0
2017-11-16T01:38:37.776Z,0
2017-11-16T01:39:51.474Z,0
2017-11-16T01:41:05.333Z,0
2017-11-16T01:42:18.988Z,0
2017-11-16T01:43:32.158Z,0
2017-11-16T01:44:45.840Z,0
2017-11-16T01:45:59.528Z,0
2017-11-16T01:47:13.232Z,0
2017-11-16T01:48:26.443Z,0
2017-11-16T01:49:40.134Z,0
2017-11-16T01:50:53.851Z,0
2017-11-16T01:52:07.086Z,0
2017-11-16T01:53:20.256Z,0
2017-11-16T01:54:33.991Z,0
2017-11-16T01:55:47.734Z,0
2017-11-16T01:57:00.975Z,0
2017-11-16T01:58:14.163Z,0
2017-11-16T01:59:27.362Z,0
2017-11-16T02:00:41.089Z,0
2017-11-16T02:01:54.792Z,0
2017-11-16T02:03:08.458Z,0
2017-11-16T02:04:21.624Z,0
2017-11-16T02:05:35.323Z,0
2017-11-16T02:06:49.222Z,0
2017-11-16T02:08:02.924Z,0
2017-11-16T02:09:16.338Z,0
2017-11-16T02:10:29.749Z,0
2017-11-16T02:11:43.434Z,0
2017-11-16T02:12:57.148Z,0
2017-11-16T02:14:10.835Z,0
2017-11-16T02:15:24.020Z,0
2017-11-16T02:16:37.771Z,0
2017-11-16T02:17:51.457Z,0
2017-11-16T02:19:05.139Z,0
2017-11-16T02:20:18.877Z,0
2017-11-16T02:21:32.138Z,0
2017-11-16T02:22:45.881Z,0
2017-11-16T02:24:18.768Z,0
2017-11-16T02:25:32.433Z,0
2017-11-16T02:26:46.150Z,0
2017-11-16T02:27:59.862Z,0
2017-11-16T02:29:13.578Z,0
2017-11-16T02:30:27.332Z,0
2017-11-16T02:31:41.085Z,0
2017-11-16T02:32:54.250Z,0
2017-11-16T02:34:07.960Z,0
2017-11-16T02:35:21.664Z,0
2017-11-16T02:36:35.400Z,0
2017-11-16T02:37:48.548Z,0
2017-11-16T02:39:02.224Z,0
2017-11-16T02:40:15.997Z,0
2017-11-16T02:41:29.174Z,0
2017-11-16T02:42:42.906Z,0
2017-11-16T02:43:56.116Z,0
2017-11-16T02:45:09.859Z,0
2017-11-16T02:46:23.613Z,0
2017-11-16T02:47:36.796Z,0
2017-11-16T02:48:50.008Z,0
2017-11-16T02:50:03.254Z,0
2017-11-16T02:51:15.902Z,0
2017-11-16T02:52:29.619Z,0
2017-11-16T02:53:42.821Z,0
2017-11-16T02:54:56.505Z,0
2017-11-16T02:56:09.703Z,0
2017-11-16T02:57:23.385Z,0
2017-11-16T02:58:37.312Z,0
2017-11-16T02:59:51.037Z,0
2017-11-16T03:01:04.775Z,0
2017-11-16T03:02:17.441Z,0
2017-11-16T03:03:31.151Z,0
2017-11-16T03:04:44.856Z,0
2017-11-16T03:05:58.550Z,0
2017-11-16T03:07:11.188Z,0
2017-11-16T03:08:25.270Z,0
2017-11-16T03:09:37.419Z,0
2017-11-16T03:10:50.616Z,0
2017-11-16T03:12:04.408Z,0
2017-11-16T03:13:16.560Z,0
2017-11-16T03:14:30.255Z,0
2017-11-16T03:15:43.953Z,0
2017-11-16T03:16:57.663Z,0
2017-11-16T03:18:11.405Z,0
2017-11-16T03:19:25.076Z,0
2017-11-16T03:20:38.758Z,0
2017-11-16T03:21:52.494Z,0
2017-11-16T03:23:06.214Z,0
2017-11-16T03:24:19.927Z,0
2017-11-16T03:25:33.590Z,0
2017-11-16T03:26:46.759Z,0
2017-11-16T03:27:59.973Z,0
2017-11-16T03:29:13.237Z,0
2017-11-16T03:30:26.969Z,0
2017-11-16T03:31:40.376Z,0
2017-11-16T03:32:54.099Z,0
2017-11-16T03:34:07.302Z,0
2017-11-16T03:35:21.012Z,0
2017-11-16T03:36:34.905Z,0
2017-11-16T03:37:48.792Z,0
2017-11-16T03:39:01.967Z,0
2017-11-16T03:40:15.629Z,0
2017-11-16T03:41:28.852Z,0
2017-11-16T03:42:42.620Z,0
2017-11-16T03:43:56.341Z,0
2017-11-16T03:45:10.018Z,0
2017-11-16T03:46:23.221Z,0
2017-11-16T03:47:37.198Z,0
2017-11-16T03:48:51.553Z,0
2017-11-16T03:50:05.227Z,0
2017-11-16T03:51:19.892Z,0
2017-11-16T03:52:33.615Z,0
2017-11-16T03:53:46.831Z,0
2017-11-16T03:55:00.559Z,0
2017-11-16T03:56:13.222Z,0
2017-11-16T03:57:26.647Z,0
2017-11-16T03:58:40.352Z,0
2017-11-16T03:59:53.555Z,0
2017-11-16T04:01:07.279Z,0
2017-11-16T04:02:20.476Z,0
2017-11-16T04:03:34.177Z,0
2017-11-16T04:04:47.885Z,0
2017-11-16T04:06:01.558Z,0
2017-11-16T04:07:14.732Z,0
2017-11-16T04:08:28.435Z,0
2017-11-16T04:09:41.615Z,0
2017-11-16T04:10:55.333Z,0
2017-11-16T04:12:09.047Z,0
2017-11-16T04:13:22.726Z,0
2017-11-16T04:14:36.419Z,0
2017-11-16T04:15:49.127Z,0
2017-11-16T04:17:02.833Z,0
2017-11-16T04:18:16.572Z,0
2017-11-16T04:19:30.240Z,0
2017-11-16T04:20:43.990Z,0
2017-11-16T04:21:57.211Z,0
2017-11-16T04:23:11.029Z,0
2017-11-16T04:24:24.703Z,0
2017-11-16T04:25:38.456Z,0
2017-11-16T04:26:52.312Z,0
2017-11-16T04:28:06.009Z,0
2017-11-16T04:29:19.731Z,0
2017-11-16T04:30:33.392Z,0
2017-11-16T04:31:47.077Z,0
2017-11-16T04:33:00.490Z,0
2017-11-16T04:34:14.205Z,0
2017-11-16T04:35:27.921Z,0
2017-11-16T04:36:41.614Z,0
2017-11-16T04:37:55.387Z,0
2017-11-16T04:39:08.600Z,0
2017-11-16T04:40:22.293Z,0
2017-11-16T04:41:36.031Z,0
2017-11-16T04:42:49.197Z,0
2017-11-16T04:44:02.922Z,0
2017-11-16T04:45:16.835Z,0
2017-11-16T04:46:30.520Z,0
2017-11-16T04:47:43.701Z,0
2017-11-16T04:48:57.412Z,0
2017-11-16T04:50:11.292Z,0
2017-11-16T04:51:25.029Z,0
2017-11-16T04:52:38.781Z,0
2017-11-16T04:53:52.873Z,0
2017-11-16T04:55:06.552Z,0
2017-11-16T04:56:20.228Z,0
2017-11-16T04:57:33.939Z,0
2017-11-16T04:58:47.627Z,0
2017-11-16T05:00:00.838Z,0
2017-11-16T05:01:14.579Z,0
2017-11-16T05:02:28.349Z,0
2017-11-16T05:03:42.095Z,0
2017-11-16T05:04:55.866Z,0
2017-11-16T05:06:08.503Z,0
2017-11-16T05:07:21.440Z,0
2017-11-16T05:08:35.310Z,0
2017-11-16T05:09:49.379Z,0
2017-11-16T05:11:03.224Z,0
2017-11-16T05:12:16.938Z,0
2017-11-16T05:13:30.602Z,0
2017-11-16T05:14:44.333Z,0
2017-11-16T05:15:57.522Z,0
2017-11-16T05:17:11.231Z,0
2017-11-16T05:18:25.155Z,0
2017-11-16T05:19:38.858Z,0
2017-11-16T05:20:52.544Z,0
2017-11-16T05:22:05.785Z,0
2017-11-16T05:23:18.990Z,0
2017-11-16T05:24:32.682Z,0
2017-11-16T05:25:46.412Z,0
2017-11-16T05:26:59.609Z,0
2017-11-16T05:28:12.307Z,0
2017-11-16T05:29:26.105Z,0
2017-11-16T05:30:39.517Z,0
2017-11-16T05:31:53.238Z,0
2017-11-16T05:33:06.956Z,0
2017-11-16T05:34:20.633Z,0
2017-11-16T05:35:34.340Z,0
2017-11-16T05:36:48.065Z,0
2017-11-16T05:38:01.756Z,0
2017-11-16T05:39:15.483Z,0
2017-11-16T05:40:29.165Z,0
2017-11-16T05:41:42.326Z,0
2017-11-16T05:42:56.025Z,0
2017-11-16T05:44:09.198Z,0
2017-11-16T05:45:22.897Z,0
2017-11-16T05:46:36.841Z,0
2017-11-16T05:47:50.528Z,0
2017-11-16T05:49:03.742Z,0
2017-11-16T05:50:17.467Z,0
2017-11-16T05:51:31.182Z,0
2017-11-16T05:52:44.923Z,0
2017-11-16T05:53:58.106Z,0
2017-11-16T05:55:11.304Z,0
2017-11-16T05:56:25.081Z,0
2017-11-16T05:57:38.823Z,0
2017-11-16T05:58:52.571Z,0
2017-11-16T06:00:05.221Z,0
2017-11-16T06:01:18.403Z,0
2017-11-16T06:02:32.074Z,0
2017-11-16T06:03:45.790Z,0
2017-11-16T06:04:59.500Z,0
2017-11-16T06:06:12.479Z,0
2017-11-16T06:07:26.199Z,0
2017-11-16T06:08:39.407Z,0
2017-11-16T06:09:52.590Z,0
2017-11-16T06:11:06.349Z,0
2017-11-16T06:12:20.076Z,0
2017-11-16T06:13:33.780Z,0
2017-11-16T06:14:46.916Z,0
2017-11-16T06:16:00.227Z,0
2017-11-16T06:17:12.907Z,0
2017-11-16T06:18:26.615Z,0
2017-11-16T06:19:39.245Z,0
2017-11-16T06:20:51.893Z,0
2017-11-16T06:22:05.625Z,0
2017-11-16T06:23:19.315Z,0
2017-11-16T06:24:33.039Z,0
2017-11-16T06:25:46.235Z,0
2017-11-16T06:26:59.968Z,0
2017-11-16T06:28:13.685Z,0
2017-11-16T06:29:27.382Z,0
2017-11-16T06:30:43.651Z,0
2017-11-16T06:31:58.311Z,0
2017-11-16T06:33:12.248Z,0
2017-11-16T06:34:25.988Z,0
2017-11-16T06:35:39.929Z,0
2017-11-16T06:36:52.617Z,0
2017-11-16T06:38:06.344Z,0
2017-11-16T06:39:20.066Z,0
2017-11-16T06:40:33.801Z,0
2017-11-16T06:41:46.501Z,0
2017-11-16T06:42:59.716Z,0
2017-11-16T06:44:39.136Z,0
2017-11-16T06:45:52.306Z,0
2017-11-16T06:47:06.016Z,0
2017-11-16T06:48:19.974Z,0
2017-11-16T06:49:33.658Z,0
2017-11-16T06:50:47.184Z,0
2017-11-16T06:52:00.867Z,0
2017-11-16T06:53:14.564Z,0
2017-11-16T06:54:28.284Z,0
2017-11-16T06:55:41.494Z,0
2017-11-16T06:56:54.188Z,0
2017-11-16T06:58:06.864Z,0
2017-11-16T06:59:20.580Z,0
2017-11-16T07:00:34.314Z,0
2017-11-16T07:01:47.499Z,0
2017-11-16T07:03:01.050Z,0
2017-11-16T07:04:14.249Z,0
2017-11-16T07:05:27.942Z,0
2017-11-16T07:06:42.041Z,0
2017-11-16T07:07:55.790Z,0
2017-11-16T07:09:09.519Z,0
2017-11-16T07:10:22.683Z,0
2017-11-16T07:11:36.367Z,0
2017-11-16T07:12:50.070Z,0
2017-11-16T07:14:03.737Z,0
2017-11-16T07:15:16.916Z,0
2017-11-16T07:16:30.560Z,0
2017-11-16T07:17:44.467Z,0
2017-11-16T07:18:58.175Z,0
2017-11-16T07:20:11.869Z,0
2017-11-16T07:21:25.032Z,0
2017-11-16T07:22:38.940Z,0
2017-11-16T07:23:52.721Z,0
2017-11-16T07:25:05.869Z,0
2017-11-16T07:26:19.575Z,0
2017-11-16T07:27:33.508Z,0
2017-11-16T07:28:47.226Z,0
2017-11-16T07:30:00.939Z,0
2017-11-16T07:31:14.624Z,0
2017-11-16T07:32:27.786Z,0
2017-11-16T07:33:41.488Z,0
2017-11-16T07:34:55.185Z,0
2017-11-16T07:36:08.349Z,0
2017-11-16T07:37:22.052Z,0
2017-11-16T07:38:35.752Z,0
2017-11-16T07:39:48.960Z,0
2017-11-16T07:41:02.687Z,0
2017-11-16T07:42:16.436Z,0
2017-11-16T07:43:30.161Z,0
2017-11-16T07:44:43.970Z,4
2017-11-16T07:45:57.667Z,0
2017-11-16T07:47:11.330Z,4
2017-11-16T07:48:25.007Z,4
2017-11-16T07:49:38.719Z,4
2017-11-16T07:50:52.452Z,4
2017-11-16T07:52:05.684Z,8
2017-11-16T07:53:19.378Z,12
2017-11-16T07:54:33.100Z,12
2017-11-16T07:55:46.252Z,20
2017-11-16T07:56:59.946Z,28
2017-11-16T07:58:13.110Z,36
2017-11-16T07:59:26.820Z,48
2017-11-16T08:00:40.607Z,64
2017-11-16T08:01:54.306Z,80
2017-11-16T08:03:08.023Z,104
2017-11-16T08:04:21.174Z,132
2017-11-16T08:05:34.867Z,168
2017-11-16T08:06:48.583Z,204
2017-11-16T08:08:02.284Z,248
2017-11-16T08:09:15.478Z,300
2017-11-16T08:10:28.120Z,356
2017-11-16T08:11:41.818Z,420
2017-11-16T08:12:55.484Z,492
2017-11-16T08:14:08.714Z,572
2017-11-16T08:15:21.908Z,660
2017-11-16T08:16:35.643Z,760
2017-11-16T08:17:49.324Z,864
2017-11-16T08:19:03.034Z,976
2017-11-16T08:20:16.203Z,1100
2017-11-16T08:21:28.878Z,1240
2017-11-16T08:22:42.545Z,1388
2017-11-16T08:23:55.722Z,1552
2017-11-16T08:25:09.414Z,1724
2017-11-16T08:26:23.106Z,1920
2017-11-16T08:27:36.839Z,2136
2017-11-16T08:28:50.540Z,2388
2017-11-16T08:30:04.238Z,2620
2017-11-16T08:31:16.935Z,2904
2017-11-16T08:32:30.640Z,3204
2017-11-16T08:33:43.781Z,3484
2017-11-16T08:34:57.491Z,3844
2017-11-16T08:36:30.446Z,4264
2017-11-16T08:37:44.207Z,4564
2017-11-16T08:38:57.927Z,4972
2017-11-16T08:40:11.645Z,5328
2017-11-16T08:41:24.849Z,5712
2017-11-16T08:42:38.572Z,6112
2017-11-16T08:43:52.250Z,6576
2017-11-16T08:45:05.498Z,7120
2017-11-16T08:46:19.219Z,7696
2017-11-16T08:47:32.907Z,8112
2017-11-16T08:48:46.620Z,8168
2017-11-16T08:50:00.346Z,8916
2017-11-16T08:51:13.575Z,9632
2017-11-16T08:52:27.246Z,10208
2017-11-16T08:53:40.387Z,10668
2017-11-16T08:54:54.134Z,10728
2017-11-16T08:56:38.936Z,11864
2017-11-16T08:57:52.646Z,12332
2017-11-16T08:59:06.442Z,12660
2017-11-16T09:00:19.629Z,13000
2017-11-16T09:01:33.394Z,14016
2017-11-16T09:02:46.637Z,14816
2017-11-16T09:03:59.800Z,14976
2017-11-16T09:05:13.021Z,15360
2017-11-16T09:06:25.663Z,15968
2017-11-16T09:07:39.363Z,16384
2017-11-16T09:08:53.094Z,16768
2017-11-16T09:10:06.272Z,18368
2017-11-16T09:11:19.967Z,19520
2017-11-16T09:12:33.637Z,19904
2017-11-16T09:13:47.364Z,20576
2017-11-16T09:15:01.075Z,21248
2017-11-16T09:16:14.291Z,21184
2017-11-16T09:17:28.029Z,21472
2017-11-16T09:18:41.744Z,22496
2017-11-16T09:19:55.414Z,24128
2017-11-16T09:21:09.080Z,25088
2017-11-16T09:22:22.842Z,25472
2017-11-16T09:23:36.593Z,25760
2017-11-16T09:24:50.272Z,26656
2017-11-16T09:26:03.705Z,28768
2017-11-16T09:27:17.428Z,28416
2017-11-16T09:28:31.110Z,29184
2017-11-16T09:29:45.045Z,28864
2017-11-16T09:30:58.781Z,29600
2017-11-16T09:32:12.473Z,31904
2017-11-16T09:33:26.212Z,31744
2017-11-16T09:34:39.421Z,33088
2017-11-16T09:35:52.607Z,33056
2017-11-16T09:37:06.283Z,34912
2017-11-16T09:38:19.964Z,35616
2017-11-16T09:39:33.690Z,35136
2017-11-16T09:40:46.916Z,36672
2017-11-16T09:42:00.089Z,37856
2017-11-16T09:43:13.509Z,38208
2017-11-16T09:44:27.227Z,38656
2017-11-16T09:45:40.438Z,40992
2017-11-16T09:46:54.117Z,40640
2017-11-16T09:48:07.843Z,42528
2017-11-16T09:49:21.214Z,43104
2017-11-16T09:50:34.429Z,43040
2017-11-16T09:51:47.597Z,43552
2017-11-16T09:53:01.308Z,41888
2017-11-16T09:54:15.001Z,44544
2017-11-16T09:55:28.257Z,47552
2017-11-16T09:56:41.964Z,48608
2017-11-16T09:57:55.670Z,48576
2017-11-16T09:59:09.357Z,48544
2017-11-16T10:00:23.063Z,49120
2017-11-16T10:01:36.788Z,49024
2017-11-16T10:02:50.493Z,49888
2017-11-16T10:04:04.171Z,49984
2017-11-16T10:05:17.997Z,52864
2017-11-16T10:06:31.698Z,54016
2017-11-16T10:07:45.458Z,48832
2017-11-16T10:08:58.623Z,48736
2017-11-16T10:10:11.731Z,56032
2017-11-16T10:11:26.097Z,56000
2017-11-16T10:12:39.889Z,56608
2017-11-16T10:13:53.587Z,56448
2017-11-16T10:15:07.286Z,56672
2017-11-16T10:16:20.520Z,57216
2017-11-16T10:17:34.216Z,55296
2017-11-16T10:18:47.457Z,57120
2017-11-16T10:20:00.157Z,59232
2017-11-16T10:21:13.362Z,58208
2017-11-16T10:22:27.296Z,58176
2017-11-16T10:23:40.508Z,60992
2017-11-16T10:24:54.301Z,61536
2017-11-16T10:26:07.502Z,61984
2017-11-16T10:27:20.172Z,63200
2017-11-16T10:28:33.360Z,63968
2017-11-16T10:29:47.096Z,64032
2017-11-16T10:31:00.809Z,64000
2017-11-16T10:32:13.965Z,66848
2017-11-16T10:33:27.746Z,65472
2017-11-16T10:34:41.782Z,67424
2017-11-16T10:35:55.742Z,69600
2017-11-16T10:37:09.485Z,68320
2017-11-16T10:38:23.186Z,70656
2017-11-16T10:39:36.870Z,70080
2017-11-16T10:40:50.584Z,68416
2017-11-16T10:42:04.308Z,71104
2017-11-16T10:43:17.545Z,72480
2017-11-16T10:44:31.313Z,72576
2017-11-16T10:45:45.019Z,71936
2017-11-16T10:46:58.776Z,74880
2017-11-16T10:48:11.969Z,71136
2017-11-16T10:49:25.719Z,71296
2017-11-16T10:50:38.894Z,74336
2017-11-16T10:51:52.602Z,76256
2017-11-16T10:53:06.295Z,75872
2017-11-16T10:54:20.073Z,75872
2017-11-16T10:55:33.828Z,71648
2017-11-16T10:56:46.515Z,76352
2017-11-16T10:58:00.244Z,77152
2017-11-16T10:59:13.473Z,73120
2017-11-16T11:00:27.222Z,71776
2017-11-16T11:01:40.879Z,72512
2017-11-16T11:02:54.641Z,69952
2017-11-16T11:04:08.361Z,70016
2017-11-16T11:05:22.099Z,70912
2017-11-16T11:06:35.780Z,70592
2017-11-16T11:07:49.450Z,71712
2017-11-16T11:09:03.181Z,77344
2017-11-16T11:10:16.913Z,72000
2017-11-16T11:11:30.307Z,59680
2017-11-16T11:12:44.006Z,48320
2017-11-16T11:13:57.696Z,46016
2017-11-16T11:15:11.385Z,46208
2017-11-16T11:16:24.558Z,45600
2017-11-16T11:17:39.004Z,45024
2017-11-16T11:18:52.778Z,44384
2017-11-16T11:20:05.990Z,44544
2017-11-16T11:21:20.116Z,43872
2017-11-16T11:22:34.088Z,42880
2017-11-16T11:23:47.592Z,42624
2017-11-16T11:25:05.829Z,43136
2017-11-16T11:26:19.593Z,45312
2017-11-16T11:27:33.303Z,44736
2017-11-16T11:28:47.034Z,46336
2017-11-16T11:30:00.264Z,53600
2017-11-16T11:31:13.476Z,59488
2017-11-16T11:32:26.215Z,57344
2017-11-16T11:33:39.975Z,58400
2017-11-16T11:34:53.721Z,63232
2017-11-16T11:36:05.914Z,62144
2017-11-16T11:37:19.734Z,61184
2017-11-16T11:38:32.920Z,59648
2017-11-16T11:39:46.657Z,55296
2017-11-16T11:41:31.425Z,53312
2017-11-16T11:42:44.790Z,55424
2017-11-16T11:43:58.499Z,55904
2017-11-16T11:45:12.223Z,53504
2017-11-16T11:46:25.936Z,53696
2017-11-16T11:47:39.674Z,56000
2017-11-16T11:48:53.469Z,56288
2017-11-16T11:50:06.169Z,53376
2017-11-16T11:51:19.881Z,52160
2017-11-16T11:52:33.122Z,52672
2017-11-16T11:53:45.833Z,55712
2017-11-16T11:54:59.565Z,55968
2017-11-16T11:56:12.209Z,54240
2017-11-16T11:57:25.467Z,56672
2017-11-16T11:58:38.653Z,58784
2017-11-16T11:59:52.385Z,59296
2017-11-16T12:01:06.117Z,60192
2017-11-16T12:02:19.568Z,63232
2017-11-16T12:03:33.325Z,65024
2017-11-16T12:04:47.263Z,62496
2017-11-16T12:06:01.844Z,63392
2017-11-16T12:07:15.320Z,63328
2017-11-16T12:08:29.091Z,63680
2017-11-16T12:09:42.829Z,71232
2017-11-16T12:10:56.542Z,73376
2017-11-16T12:12:09.267Z,71488
2017-11-16T12:13:23.016Z,71456
2017-11-16T12:14:36.721Z,68672
2017-11-16T12:15:50.436Z,71968
2017-11-16T12:17:04.190Z,70016
2017-11-16T12:18:17.407Z,69632
2017-11-16T12:19:30.598Z,67648
2017-11-16T12:20:44.367Z,60256
2017-11-16T12:21:58.203Z,63200
2017-11-16T12:23:11.955Z,67744
2017-11-16T12:24:24.841Z,68896
2017-11-16T12:25:38.626Z,66048
2017-11-16T12:26:52.388Z,63168
2017-11-16T12:28:06.142Z,68960
2017-11-16T12:29:19.867Z,61184
2017-11-16T12:30:33.621Z,51360
2017-11-16T12:31:46.861Z,50240
2017-11-16T12:33:00.596Z,49504
2017-11-16T12:34:14.334Z,48896
2017-11-16T12:35:28.294Z,48736
2017-11-16T12:36:42.023Z,48928
2017-11-16T12:37:55.741Z,48768
2017-11-16T12:39:09.456Z,48672
2017-11-16T12:40:23.208Z,48512
2017-11-16T12:41:36.423Z,48480
2017-11-16T12:42:49.193Z,48384
2017-11-16T12:44:03.144Z,48480
2017-11-16T12:45:16.885Z,48512
2017-11-16T12:46:30.040Z,48320
2017-11-16T12:47:43.223Z,47872
2017-11-16T12:48:57.109Z,48320
2017-11-16T12:50:10.319Z,47904
2017-11-16T12:51:24.049Z,47904
2017-11-16T12:52:37.763Z,48192
2017-11-16T12:53:51.521Z,48384
2017-11-16T12:55:05.302Z,48512
2017-11-16T12:56:18.591Z,48416
2017-11-16T12:57:31.773Z,48000
2017-11-16T12:58:45.504Z,48256
2017-11-16T12:59:59.443Z,47904
2017-11-16T13:01:13.181Z,48320
2017-11-16T13:02:26.928Z,49024
2017-11-16T13:03:40.121Z,48672
2017-11-16T13:04:53.838Z,49184
2017-11-16T13:06:07.561Z,49248
2017-11-16T13:07:21.434Z,48896
2017-11-16T13:08:35.141Z,49696
2017-11-16T13:09:48.884Z,49952
2017-11-16T13:11:02.101Z,50464
2017-11-16T13:12:15.834Z,50208
2017-11-16T13:13:29.568Z,51200
2017-11-16T13:14:43.259Z,51776
2017-11-16T13:15:57.027Z,52544
2017-11-16T13:17:10.794Z,52928
2017-11-16T13:18:25.294Z,53920
2017-11-16T13:19:38.757Z,54336
2017-11-16T13:20:52.518Z,55424
2017-11-16T13:22:05.759Z,56320
2017-11-16T13:23:19.524Z,56992
2017-11-16T13:24:33.305Z,58240
2017-11-16T13:25:47.044Z,58304
2017-11-16T13:27:00.276Z,58976
2017-11-16T13:28:13.464Z,59936
2017-11-16T13:29:27.200Z,60896
2017-11-16T13:30:40.925Z,61952
2017-11-16T13:31:54.675Z,65344
2017-11-16T13:33:07.845Z,70624
2017-11-16T13:34:21.516Z,77760
2017-11-16T13:35:35.701Z,84160
2017-11-16T13:36:49.479Z,85088
2017-11-16T13:38:02.261Z,82112
2017-11-16T13:39:14.957Z,80384
2017-11-16T13:40:28.181Z,80192
2017-11-16T13:41:41.507Z,74464
2017-11-16T13:42:55.492Z,72288
2017-11-16T13:44:08.764Z,70688
2017-11-16T13:45:22.211Z,69216
2017-11-16T13:46:36.002Z,68000
2017-11-16T13:47:49.760Z,66240
2017-11-16T13:49:03.517Z,67552
2017-11-16T13:50:17.296Z,68256
2017-11-16T13:51:30.577Z,68448
2017-11-16T13:52:43.849Z,68640
2017-11-16T13:53:56.529Z,69280
2017-11-16T13:55:10.261Z,67296
2017-11-16T13:56:24.032Z,66816
2017-11-16T13:57:38.040Z,68288
2017-11-16T13:58:51.783Z,68832
2017-11-16T14:00:05.491Z,75200
2017-11-16T14:01:18.679Z,74816
2017-11-16T14:02:31.884Z,62400
2017-11-16T14:03:45.551Z,75328
2017-11-16T14:04:58.442Z,83392
2017-11-16T14:06:11.635Z,72384
2017-11-16T14:07:25.586Z,35680
2017-11-16T14:08:39.228Z,80512
2017-11-16T14:09:52.976Z,38848
2017-11-16T14:11:06.717Z,81120
2017-11-16T14:12:19.915Z,32608
2017-11-16T14:13:33.660Z,29664
2017-11-16T14:14:47.403Z,26496
2017-11-16T14:16:01.152Z,34752
2017-11-16T14:17:14.369Z,85376
2017-11-16T14:18:28.072Z,94752
2017-11-16T14:19:41.886Z,90304
2017-11-16T14:20:55.308Z,27712
2017-11-16T14:22:09.249Z,84544
2017-11-16T14:23:23.006Z,25792
2017-11-16T14:24:36.713Z,27072
2017-11-16T14:25:49.963Z,25536
2017-11-16T14:27:03.673Z,73344
2017-11-16T14:28:16.856Z,73568
2017-11-16T14:29:30.564Z,74080
2017-11-16T14:30:43.782Z,74496
2017-11-16T14:31:57.520Z,76576
2017-11-16T14:33:10.673Z,78336
2017-11-16T14:34:23.648Z,81856
2017-11-16T14:35:36.874Z,37920
2017-11-16T14:36:50.609Z,80480
2017-11-16T14:38:04.397Z,76960
2017-11-16T14:39:18.119Z,32608
2017-11-16T14:40:31.262Z,33600
2017-11-16T14:41:44.527Z,32480
2017-11-16T14:42:58.269Z,46592
2017-11-16T14:44:16.047Z,76128
2017-11-16T14:45:29.779Z,77184
2017-11-16T14:46:43.500Z,80800
2017-11-16T14:47:56.696Z,79296
2017-11-16T14:49:09.892Z,73504
2017-11-16T14:50:24.122Z,70880
2017-11-16T14:51:36.964Z,68096
2017-11-16T14:52:50.725Z,70048
2017-11-16T14:54:03.945Z,72320
2017-11-16T14:55:17.691Z,78848
2017-11-16T14:56:30.907Z,90304
2017-11-16T14:57:44.188Z,86816
2017-11-16T14:58:57.359Z,28352
2017-11-16T15:00:11.021Z,39392
2017-11-16T15:01:24.238Z,75872
2017-11-16T15:02:37.971Z,69376
2017-11-16T15:03:50.693Z,67744
2017-11-16T15:05:04.662Z,67616
2017-11-16T15:06:18.399Z,67232
2017-11-16T15:07:32.195Z,66240
2017-11-16T15:08:46.781Z,64640
2017-11-16T15:10:00.522Z,64064
2017-11-16T15:11:14.284Z,63392
2017-11-16T15:12:27.972Z,62240
2017-11-16T15:13:41.674Z,61216
2017-11-16T15:14:55.416Z,62368
2017-11-16T15:16:09.197Z,63712
2017-11-16T15:17:22.431Z,63424
2017-11-16T15:18:36.147Z,66304
2017-11-16T15:19:48.799Z,69280
2017-11-16T15:21:02.616Z,34304
2017-11-16T15:22:16.374Z,73408
2017-11-16T15:23:30.093Z,74592
2017-11-16T15:24:43.786Z,72800
2017-11-16T15:25:57.492Z,71968
2017-11-16T15:27:10.172Z,71200
2017-11-16T15:28:23.891Z,23840
2017-11-16T15:29:37.137Z,25856
2017-11-16T15:30:50.908Z,74752
2017-11-16T15:32:04.634Z,81568
2017-11-16T15:33:18.397Z,92128
2017-11-16T15:34:32.505Z,100704
2017-11-16T15:35:46.231Z,103616
2017-11-16T15:36:59.469Z,96928
2017-11-16T15:38:13.573Z,99296
2017-11-16T15:39:26.826Z,110208
2017-11-16T15:40:40.632Z,115264
2017-11-16T15:41:54.350Z,23360
2017-11-16T15:43:07.574Z,19872
2017-11-16T15:44:20.787Z,116928
2017-11-16T15:45:34.514Z,120864
2017-11-16T15:46:48.228Z,123584
2017-11-16T15:48:28.956Z,124768
2017-11-16T15:49:42.648Z,123328
2017-11-16T15:50:56.754Z,123744
2017-11-16T15:52:10.752Z,127392
2017-11-16T15:53:23.573Z,124800
2017-11-16T15:54:37.388Z,125504
2017-11-16T15:55:51.135Z,134560
2017-11-16T15:57:04.316Z,31712
2017-11-16T15:58:18.016Z,48256
2017-11-16T15:59:31.710Z,52832
2017-11-16T16:00:44.906Z,31392
2017-11-16T16:01:57.590Z,131680
2017-11-16T16:03:11.533Z,32128
2017-11-16T16:04:25.239Z,28832
2017-11-16T16:05:38.434Z,37056
2017-11-16T16:06:51.655Z,66816
2017-11-16T16:08:05.373Z,134112
2017-11-16T16:09:19.331Z,129088
2017-11-16T16:10:32.511Z,129856
2017-11-16T16:11:46.260Z,131776
2017-11-16T16:13:00.137Z,130400
2017-11-16T16:14:13.856Z,130528
2017-11-16T16:15:27.645Z,37728
2017-11-16T16:16:41.353Z,124640
2017-11-16T16:17:54.560Z,97568
2017-11-16T16:19:08.276Z,125664
2017-11-16T16:20:21.934Z,129248
2017-11-16T16:21:35.630Z,133280
2017-11-16T16:22:48.811Z,129792
2017-11-16T16:24:01.989Z,127008
2017-11-16T16:25:15.684Z,120576
2017-11-16T16:26:29.432Z,117472
2017-11-16T16:27:42.646Z,24992
2017-11-16T16:28:56.689Z,23008
2017-11-16T16:30:10.613Z,25312
2017-11-16T16:31:23.809Z,116896
2017-11-16T16:32:37.562Z,117120
2017-11-16T16:33:51.252Z,114656
2017-11-16T16:35:04.449Z,112224
2017-11-16T16:36:17.632Z,22976
2017-11-16T16:37:30.873Z,23296
2017-11-16T16:38:44.609Z,29792
2017-11-16T16:39:58.361Z,36000
2017-11-16T16:41:13.909Z,78080
2017-11-16T16:42:27.265Z,120096
2017-11-16T16:43:40.984Z,131168
2017-11-16T16:44:54.724Z,128768
2017-11-16T16:46:08.424Z,120480
2017-11-16T16:47:22.161Z,123872
2017-11-16T16:48:35.377Z,130880
2017-11-16T16:49:49.051Z,126240
2017-11-16T16:51:02.289Z,120032
2017-11-16T16:52:16.019Z,122912